Details for EasyJet at EHAM




Go Back


Latest METAR
Local Time

EHAM 232325Z 08014KT 050V110 CAVOK M02/M07 Q1023 NOSIG

24/02/2018, 00:48:07

Description
Results
EasyJet Logo
Number of Pilots based at EHAM
2 Pilots Based here
Number of EasyJet Flights Departed from EHAM
4 Flights Departed
Number of EasyJet Flights Arrived at EHAM
7 Flights Arrived
Number of EasyJet Schedules Departing from EHAM
149 Schedules
Number of EasyJet Schedules Arriving at EHAM
147 Schedules
Number of EasyJet Schedules Departing from EHAM availible today
66 Schedules Today
Number of EasyJet Schedules Arriving at EHAM availible today
66 Schedules Today
Average Landing Rate at EHAM
-212 fpm
EasyJet Average Landing Rate at EHAM
-266 fpm
Total Fuel Purchased at EHAM by EasyJet
10,170.74 kgs / 22,422.41 lbs

Pilots Based at EHAM


Pilot ID
Pilot Name
Pilot Rank
No. of Flights
No. of Flying Hours
Youri Rutten
82
194.26
James Hatcher
122
482.05
Content